Time;durP1;ratioP1;P1;durP2;ratioP2;P2;SDS_P1;SDS_P2;PMS_P1;PMS_P2;Temp;Humidity;BMP_temperature;BMP_pressure;BME280_temperature;BME280_humidity;BME280_pressure;Samples;Min_cycle;Max_cycle;Signal;HPM_P1;HPM_P2
2023/05/11 00:00:02;;;;;;;;;;;13.60;99.90;;;;;;5066665;28;19984;-69
2023/05/11 00:02:27;;;;;;;;;;;13.60;99.90;;;;;;5063305;28;19963;-68
2023/05/11 00:04:53;;;;;;;;;;;13.60;99.90;;;;;;5085228;28;20414;-69
2023/05/11 00:07:19;;;;;;;;;;;13.60;99.90;;;;;;5083110;28;19921;-71
2023/05/11 00:09:45;;;;;;;;;;;13.60;99.90;;;;;;5062370;28;19912;-68
2023/05/11 00:12:11;;;;;;;;;;;13.50;99.90;;;;;;5064415;28;19916;-69
2023/05/11 00:14:37;;;;;;;;;;;13.60;99.90;;;;;;5081053;28;19919;-68
2023/05/11 00:17:02;;;;;;;;;;;13.50;99.90;;;;;;5067107;28;20379;-68
2023/05/11 00:19:30;;;;;;;;;;;13.50;99.90;;;;;;5044744;28;19916;-68
2023/05/11 00:21:57;;;;;;;;;;;13.50;99.90;;;;;;5087048;28;19912;-68
2023/05/11 00:24:23;;;;;;;;;;;13.50;99.90;;;;;;5069265;28;19917;-68
2023/05/11 00:26:49;;;;;;;;;;;13.50;99.90;;;;;;5083038;28;19923;-69
2023/05/11 00:29:14;;;;;;;;;;;13.50;99.90;;;;;;5058616;28;19916;-69
2023/05/11 00:31:40;;;;;;;;;;;13.50;99.90;;;;;;5081595;28;19916;-70
2023/05/11 00:34:06;;;;;;;;;;;13.50;99.90;;;;;;5081730;28;19934;-69
2023/05/11 00:36:32;;;;;;;;;;;13.50;99.90;;;;;;5065968;28;19972;-69
2023/05/11 00:38:58;;;;;;;;;;;13.50;99.90;;;;;;5061536;28;19939;-68
2023/05/11 00:41:23;;;;;;;;;;;13.50;99.90;;;;;;5083926;28;20398;-68
2023/05/11 00:43:49;;;;;;;;;;;13.50;99.90;;;;;;5057358;28;19921;-69
2023/05/11 00:46:15;;;;;;;;;;;13.50;99.90;;;;;;5068386;28;20005;-69
2023/05/11 00:48:41;;;;;;;;;;;13.50;99.90;;;;;;5079642;28;19916;-70
2023/05/11 00:51:06;;;;;;;;;;;13.50;99.90;;;;;;5082477;28;19922;-69
2023/05/11 00:53:32;;;;;;;;;;;13.50;99.90;;;;;;5076880;28;20391;-68
2023/05/11 00:55:57;;;;;;;;;;;13.50;99.90;;;;;;5083351;28;20281;-68
2023/05/11 00:58:23;;;;;;;;;;;13.40;99.90;;;;;;5078669;28;20521;-68
2023/05/11 01:00:49;;;;;;;;;;;13.40;99.90;;;;;;5077962;28;20327;-68
2023/05/11 01:03:15;;;;;;;;;;;13.50;99.90;;;;;;5084103;28;20452;-69
2023/05/11 01:05:43;;;;;;;;;;;13.50;99.90;;;;;;5078004;28;19964;-69
2023/05/11 01:08:13;;;;;;;;;;;13.50;99.90;;;;;;5072741;28;19921;-68
2023/05/11 01:10:38;;;;;;;;;;;13.50;99.90;;;;;;5059355;28;20351;-69
2023/05/11 01:13:22;;;;;;;;;;;13.50;99.90;;;;;;5065182;28;19917;-68
2023/05/11 01:15:52;;;;;;;;;;;13.40;99.90;;;;;;5078626;28;19912;-69
2023/05/11 01:18:23;;;;;;;;;;;13.40;99.90;;;;;;5084257;28;19960;-68
2023/05/11 01:20:52;;;;;;;;;;;13.40;99.90;;;;;;5058770;28;19920;-69
2023/05/11 01:23:17;;;;;;;;;;;13.30;99.90;;;;;;5087105;28;20436;-69
2023/05/11 01:25:49;;;;;;;;;;;13.40;99.90;;;;;;5087786;28;19908;-68
2023/05/11 01:28:18;;;;;;;;;;;13.40;99.90;;;;;;5080582;28;19962;-69
2023/05/11 01:30:46;;;;;;;;;;;13.40;99.90;;;;;;5074371;28;20303;-69
2023/05/11 01:33:13;;;;;;;;;;;13.30;99.90;;;;;;5068624;28;19922;-68
2023/05/11 01:35:42;;;;;;;;;;;13.40;99.90;;;;;;5082498;28;19904;-68
2023/05/11 01:38:10;;;;;;;;;;;13.40;99.90;;;;;;5085876;28;19927;-69
2023/05/11 01:40:36;;;;;;;;;;;13.30;99.90;;;;;;5063547;28;20014;-69
2023/05/11 01:43:10;;;;;;;;;;;13.40;99.90;;;;;;5044913;28;20007;-68
2023/05/11 01:45:37;;;;;;;;;;;13.40;99.90;;;;;;5086273;28;19908;-69
2023/05/11 01:48:05;;;;;;;;;;;13.40;99.90;;;;;;5047154;28;19918;-69
2023/05/11 01:50:31;;;;;;;;;;;13.40;99.90;;;;;;5080173;28;19959;-69
2023/05/11 01:52:57;;;;;;;;;;;13.40;99.90;;;;;;5063979;28;19919;-69
2023/05/11 01:55:24;;;;;;;;;;;13.40;99.90;;;;;;5085961;28;19921;-69
2023/05/11 01:57:51;;;;;;;;;;;13.30;99.90;;;;;;5065221;28;20400;-69
2023/05/11 02:00:17;;;;;;;;;;;13.40;99.90;;;;;;5084650;28;20373;-69
2023/05/11 02:02:46;;;;;;;;;;;13.30;99.90;;;;;;5081937;28;19912;-68
2023/05/11 02:05:14;;;;;;;;;;;13.30;99.90;;;;;;5087626;28;19939;-68
2023/05/11 02:07:41;;;;;;;;;;;13.30;99.90;;;;;;5084266;28;19920;-68
2023/05/11 02:10:08;;;;;;;;;;;13.30;99.90;;;;;;5078704;28;19920;-69
2023/05/11 02:12:34;;;;;;;;;;;13.30;99.90;;;;;;5086247;28;20485;-68
2023/05/11 02:15:00;;;;;;;;;;;13.30;99.90;;;;;;5080191;28;19937;-68
2023/05/11 02:17:26;;;;;;;;;;;13.30;99.90;;;;;;5085118;28;20524;-69
2023/05/11 02:19:53;;;;;;;;;;;13.30;99.90;;;;;;5080925;28;19920;-69
2023/05/11 02:22:19;;;;;;;;;;;13.30;99.90;;;;;;5087030;28;19912;-68
2023/05/11 02:24:45;;;;;;;;;;;13.30;99.90;;;;;;5084379;28;19912;-68
2023/05/11 02:27:11;;;;;;;;;;;13.30;99.90;;;;;;5085116;28;19916;-68
2023/05/11 02:29:37;;;;;;;;;;;13.30;99.90;;;;;;5080055;28;19939;-68
2023/05/11 02:32:06;;;;;;;;;;;13.30;99.90;;;;;;5090687;28;20050;-69
2023/05/11 02:34:42;;;;;;;;;;;13.20;99.90;;;;;;5081976;28;19962;-69
2023/05/11 02:37:17;;;;;;;;;;;13.20;99.90;;;;;;5068106;28;19916;-69
2023/05/11 02:39:44;;;;;;;;;;;13.20;99.90;;;;;;5078794;28;20024;-69
2023/05/11 02:42:17;;;;;;;;;;;13.10;99.90;;;;;;5084184;28;19916;-69
2023/05/11 02:44:47;;;;;;;;;;;13.10;99.90;;;;;;5083548;28;19945;-68
2023/05/11 02:47:13;;;;;;;;;;;13.10;99.90;;;;;;5086734;28;19939;-69
2023/05/11 02:49:41;;;;;;;;;;;13.20;99.90;;;;;;5079436;28;19916;-69
2023/05/11 02:52:07;;;;;;;;;;;13.10;99.90;;;;;;5065839;28;19923;-70
2023/05/11 02:54:33;;;;;;;;;;;13.20;99.90;;;;;;5086707;28;20018;-69
2023/05/11 02:56:58;;;;;;;;;;;13.20;99.90;;;;;;5080376;28;20587;-69
2023/05/11 02:59:24;;;;;;;;;;;13.10;99.90;;;;;;5081498;28;19935;-68
2023/05/11 03:01:50;;;;;;;;;;;13.10;99.90;;;;;;5086023;28;19920;-68
2023/05/11 03:04:16;;;;;;;;;;;13.10;99.90;;;;;;5081573;28;19916;-68
2023/05/11 03:06:42;;;;;;;;;;;13.00;99.90;;;;;;5085364;28;19919;-69
2023/05/11 03:09:08;;;;;;;;;;;13.10;99.90;;;;;;5077673;28;20302;-69
2023/05/11 03:11:34;;;;;;;;;;;13.10;99.90;;;;;;5081273;28;19976;-69
2023/05/11 03:14:00;;;;;;;;;;;13.00;99.90;;;;;;5077598;28;19917;-69
2023/05/11 03:16:26;;;;;;;;;;;13.00;99.90;;;;;;5080894;28;20036;-69
2023/05/11 03:18:54;;;;;;;;;;;13.10;99.90;;;;;;5067537;28;19926;-68
2023/05/11 03:21:21;;;;;;;;;;;13.10;99.90;;;;;;5080695;28;19925;-69
2023/05/11 03:23:47;;;;;;;;;;;13.10;99.90;;;;;;5066285;28;19915;-68
2023/05/11 03:26:15;;;;;;;;;;;13.00;99.90;;;;;;5078266;28;19953;-68
2023/05/11 03:28:42;;;;;;;;;;;13.00;99.90;;;;;;5084866;28;19951;-69
2023/05/11 03:31:08;;;;;;;;;;;13.10;99.90;;;;;;5083140;28;20529;-68
2023/05/11 03:33:34;;;;;;;;;;;13.10;99.90;;;;;;5085199;28;19948;-68
2023/05/11 03:36:01;;;;;;;;;;;13.10;99.90;;;;;;5060690;28;19916;-68
2023/05/11 03:38:27;;;;;;;;;;;13.10;99.90;;;;;;5062042;28;20766;-68
2023/05/11 03:40:53;;;;;;;;;;;13.00;99.90;;;;;;5085127;28;19920;-68
2023/05/11 03:43:19;;;;;;;;;;;13.00;99.90;;;;;;5080295;28;20307;-68
2023/05/11 03:45:46;;;;;;;;;;;13.00;99.90;;;;;;5066747;28;20002;-68
2023/05/11 03:48:13;;;;;;;;;;;13.00;99.90;;;;;;5082514;28;20424;-68
2023/05/11 03:50:39;;;;;;;;;;;13.00;99.90;;;;;;5066505;28;19912;-68
2023/05/11 03:53:05;;;;;;;;;;;12.90;99.90;;;;;;5080393;28;19920;-69
2023/05/11 03:55:31;;;;;;;;;;;13.00;99.90;;;;;;5081308;28;19916;-68
2023/05/11 03:57:56;;;;;;;;;;;13.00;99.90;;;;;;5060324;28;19920;-68
2023/05/11 04:00:22;;;;;;;;;;;13.00;99.90;;;;;;5050963;28;19924;-68
2023/05/11 04:02:48;;;;;;;;;;;13.00;99.90;;;;;;5083240;28;20332;-68
2023/05/11 04:05:14;;;;;;;;;;;13.10;99.90;;;;;;5066267;28;19916;-68
2023/05/11 04:07:40;;;;;;;;;;;13.00;99.90;;;;;;5065398;28;19912;-69
2023/05/11 04:10:06;;;;;;;;;;;13.00;99.90;;;;;;5060769;28;20387;-70
2023/05/11 04:12:31;;;;;;;;;;;13.00;99.90;;;;;;5081018;28;20077;-68
2023/05/11 04:14:57;;;;;;;;;;;13.00;99.90;;;;;;5079294;28;20353;-68
2023/05/11 04:17:22;;;;;;;;;;;13.00;99.90;;;;;;5062627;28;19921;-68
2023/05/11 04:19:48;;;;;;;;;;;13.10;99.90;;;;;;5081920;28;19924;-68
2023/05/11 04:22:14;;;;;;;;;;;13.10;99.90;;;;;;5080212;28;19999;-68
2023/05/11 04:24:39;;;;;;;;;;;13.10;99.90;;;;;;5080949;28;19912;-68
2023/05/11 04:27:05;;;;;;;;;;;13.00;99.90;;;;;;5078642;28;19947;-68
2023/05/11 04:29:31;;;;;;;;;;;13.00;99.90;;;;;;5044719;28;20440;-68
2023/05/11 04:31:56;;;;;;;;;;;13.00;99.90;;;;;;5085500;28;20167;-68
2023/05/11 04:34:22;;;;;;;;;;;13.00;99.90;;;;;;5086747;28;20295;-68
2023/05/11 04:36:48;;;;;;;;;;;13.10;99.90;;;;;;5081369;28;19916;-68
2023/05/11 04:39:14;;;;;;;;;;;13.10;99.90;;;;;;5062225;28;20011;-68
2023/05/11 04:41:40;;;;;;;;;;;13.10;99.90;;;;;;5079550;28;19951;-68
2023/05/11 04:44:06;;;;;;;;;;;13.10;99.90;;;;;;5061915;28;20536;-68
2023/05/11 04:46:31;;;;;;;;;;;13.10;99.90;;;;;;5076824;28;19966;-68
2023/05/11 04:48:57;;;;;;;;;;;13.20;99.90;;;;;;5081186;28;19947;-68
2023/05/11 04:51:22;;;;;;;;;;;13.00;99.90;;;;;;5084071;28;20303;-68
2023/05/11 04:53:48;;;;;;;;;;;13.10;99.90;;;;;;5059655;28;19916;-68
2023/05/11 04:56:13;;;;;;;;;;;13.10;99.90;;;;;;5053338;28;19923;-68
2023/05/11 04:58:39;;;;;;;;;;;13.10;99.90;;;;;;5077554;28;19966;-69
2023/05/11 05:01:05;;;;;;;;;;;13.00;99.90;;;;;;5080325;28;20395;-68
2023/05/11 05:03:30;;;;;;;;;;;13.10;99.90;;;;;;5079033;28;19912;-69
2023/05/11 05:05:56;;;;;;;;;;;13.20;99.90;;;;;;5081871;28;19923;-68
2023/05/11 05:08:21;;;;;;;;;;;13.20;99.90;;;;;;5080948;28;20066;-68
2023/05/11 05:10:47;;;;;;;;;;;13.30;99.90;;;;;;5079227;28;19923;-69
2023/05/11 05:13:15;;;;;;;;;;;13.30;99.90;;;;;;5074067;28;19918;-68
2023/05/11 05:15:41;;;;;;;;;;;13.30;99.90;;;;;;5066442;28;20007;-69
2023/05/11 05:18:06;;;;;;;;;;;13.30;99.90;;;;;;5058361;28;20012;-68
2023/05/11 05:20:33;;;;;;;;;;;13.30;99.90;;;;;;5079480;28;19935;-69
2023/05/11 05:22:59;;;;;;;;;;;13.30;99.90;;;;;;5077325;28;20343;-69
2023/05/11 05:25:25;;;;;;;;;;;13.20;99.90;;;;;;5081665;28;20387;-68
2023/05/11 05:27:51;;;;;;;;;;;13.30;99.90;;;;;;5079704;28;19916;-68
2023/05/11 05:30:17;;;;;;;;;;;13.20;99.90;;;;;;5064626;28;19982;-68
2023/05/11 05:32:44;;;;;;;;;;;13.20;99.90;;;;;;5081727;28;19923;-68
2023/05/11 05:35:10;;;;;;;;;;;13.20;99.90;;;;;;5081316;28;20019;-68
2023/05/11 05:37:36;;;;;;;;;;;13.30;99.90;;;;;;5053741;28;19924;-68
2023/05/11 05:40:03;;;;;;;;;;;13.30;99.90;;;;;;5080630;28;19972;-69
2023/05/11 05:42:28;;;;;;;;;;;13.30;99.90;;;;;;5071419;28;19921;-68
2023/05/11 05:44:54;;;;;;;;;;;13.30;99.90;;;;;;5072912;28;19916;-68
2023/05/11 05:47:19;;;;;;;;;;;13.40;99.90;;;;;;5060659;28;19994;-69
2023/05/11 05:49:45;;;;;;;;;;;13.30;99.90;;;;;;5080044;28;19954;-68
2023/05/11 05:52:11;;;;;;;;;;;13.30;99.90;;;;;;5086178;28;20412;-69
2023/05/11 05:54:36;;;;;;;;;;;13.20;99.90;;;;;;5081494;28;20013;-67
2023/05/11 05:57:02;;;;;;;;;;;13.30;99.90;;;;;;5059817;28;19927;-69
2023/05/11 05:59:28;;;;;;;;;;;13.30;99.90;;;;;;5084900;28;19920;-68
2023/05/11 06:01:54;;;;;;;;;;;13.20;99.90;;;;;;5083630;28;20304;-68
2023/05/11 06:04:20;;;;;;;;;;;13.30;99.90;;;;;;5071984;28;19951;-68
2023/05/11 06:06:46;;;;;;;;;;;13.20;99.90;;;;;;5081166;28;20376;-68
2023/05/11 06:09:12;;;;;;;;;;;13.30;99.90;;;;;;5081937;28;19919;-68
2023/05/11 06:11:37;;;;;;;;;;;13.30;99.90;;;;;;5064254;28;19916;-69
2023/05/11 06:14:03;;;;;;;;;;;13.30;99.90;;;;;;5070992;28;19916;-68
2023/05/11 06:16:29;;;;;;;;;;;13.40;99.90;;;;;;5089513;28;19915;-69
2023/05/11 06:18:55;;;;;;;;;;;13.40;99.90;;;;;;5082886;28;19923;-69
2023/05/11 06:21:21;;;;;;;;;;;13.50;99.90;;;;;;5061452;28;19916;-69
2023/05/11 06:23:46;;;;;;;;;;;13.50;99.90;;;;;;5061014;28;20432;-69
2023/05/11 06:26:12;;;;;;;;;;;13.50;99.90;;;;;;5083763;28;20076;-69
2023/05/11 06:28:38;;;;;;;;;;;13.50;99.90;;;;;;5065620;28;20423;-69
2023/05/11 06:31:03;;;;;;;;;;;13.50;99.90;;;;;;5064348;28;20103;-69
2023/05/11 06:33:29;;;;;;;;;;;13.50;99.90;;;;;;5077321;28;19912;-70
2023/05/11 06:35:54;;;;;;;;;;;13.60;99.90;;;;;;5081688;28;19912;-69
2023/05/11 06:38:20;;;;;;;;;;;13.70;99.90;;;;;;5083209;28;19927;-69
2023/05/11 06:40:46;;;;;;;;;;;13.60;99.90;;;;;;5049514;28;21003;-69
2023/05/11 06:43:11;;;;;;;;;;;13.60;99.90;;;;;;5077745;28;20045;-69
2023/05/11 06:45:37;;;;;;;;;;;13.70;99.90;;;;;;5059978;28;19916;-68
2023/05/11 06:48:03;;;;;;;;;;;13.70;99.90;;;;;;5063830;28;19919;-69
2023/05/11 06:50:29;;;;;;;;;;;13.70;99.90;;;;;;5075848;28;19912;-71
2023/05/11 06:52:55;;;;;;;;;;;13.80;99.90;;;;;;5072563;28;19920;-68
2023/05/11 06:55:20;;;;;;;;;;;13.80;99.90;;;;;;5065340;28;19915;-69
2023/05/11 06:57:46;;;;;;;;;;;13.80;99.90;;;;;;5056684;28;19920;-69
2023/05/11 07:00:12;;;;;;;;;;;13.80;99.90;;;;;;5056916;28;19998;-69
2023/05/11 07:02:37;;;;;;;;;;;13.80;99.90;;;;;;5081546;28;20025;-70
2023/05/11 07:05:03;;;;;;;;;;;13.80;99.90;;;;;;5083654;28;19920;-69
2023/05/11 07:07:29;;;;;;;;;;;13.80;99.90;;;;;;5081896;28;19912;-71
2023/05/11 07:09:54;;;;;;;;;;;13.70;99.90;;;;;;5059343;28;19912;-69
2023/05/11 07:12:21;;;;;;;;;;;13.80;99.90;;;;;;5074140;28;20011;-68
2023/05/11 07:14:47;;;;;;;;;;;13.90;99.90;;;;;;5079873;28;19920;-70
2023/05/11 07:17:12;;;;;;;;;;;14.00;99.90;;;;;;5071506;28;19924;-69
2023/05/11 07:19:40;;;;;;;;;;;14.00;99.90;;;;;;5073006;28;21338;-69
2023/05/11 07:22:06;;;;;;;;;;;14.10;99.90;;;;;;5079035;28;19959;-70
2023/05/11 07:24:31;;;;;;;;;;;14.00;99.90;;;;;;5066117;28;19927;-69
2023/05/11 07:26:57;;;;;;;;;;;14.10;99.90;;;;;;5082359;28;20448;-68
2023/05/11 07:29:23;;;;;;;;;;;14.10;99.90;;;;;;5076518;28;20286;-68
2023/05/11 07:31:48;;;;;;;;;;;14.10;99.90;;;;;;5078757;28;19922;-69
2023/05/11 07:34:15;;;;;;;;;;;14.10;99.90;;;;;;5059765;28;19916;-71
2023/05/11 07:36:40;;;;;;;;;;;14.10;99.90;;;;;;5084266;28;19942;-69
2023/05/11 07:39:07;;;;;;;;;;;14.20;99.90;;;;;;5071437;28;19928;-69
2023/05/11 07:41:33;;;;;;;;;;;14.30;99.90;;;;;;5065660;28;19922;-68
2023/05/11 07:44:01;;;;;;;;;;;14.20;99.90;;;;;;5063217;28;19916;-69
2023/05/11 07:46:27;;;;;;;;;;;14.20;99.90;;;;;;5063328;28;19920;-69
2023/05/11 07:48:53;;;;;;;;;;;14.40;99.90;;;;;;5085684;28;19909;-68
2023/05/11 07:51:18;;;;;;;;;;;14.40;99.90;;;;;;5082707;28;19919;-70
2023/05/11 07:53:44;;;;;;;;;;;14.50;99.90;;;;;;5068042;28;19922;-68
2023/05/11 07:56:09;;;;;;;;;;;14.60;99.90;;;;;;5063205;28;19919;-68
2023/05/11 07:58:35;;;;;;;;;;;14.60;99.90;;;;;;5084780;28;19927;-69
2023/05/11 08:01:01;;;;;;;;;;;14.50;99.90;;;;;;5068375;28;19912;-68
2023/05/11 08:03:26;;;;;;;;;;;14.60;99.90;;;;;;5066066;28;20447;-69
2023/05/11 08:05:52;;;;;;;;;;;14.60;99.90;;;;;;5084582;28;19920;-69
2023/05/11 08:08:18;;;;;;;;;;;14.60;99.90;;;;;;5069223;28;19916;-68
2023/05/11 08:10:44;;;;;;;;;;;14.60;99.90;;;;;;5083551;28;19916;-69
2023/05/11 08:13:10;;;;;;;;;;;14.60;99.90;;;;;;5063186;28;19981;-68
2023/05/11 08:15:36;;;;;;;;;;;14.70;99.90;;;;;;5083016;28;20380;-69
2023/05/11 08:18:01;;;;;;;;;;;14.50;99.90;;;;;;5065631;28;19920;-69
2023/05/11 08:20:27;;;;;;;;;;;14.60;99.90;;;;;;5085495;28;20532;-69
2023/05/11 08:22:53;;;;;;;;;;;14.70;99.90;;;;;;5083595;28;19923;-68
2023/05/11 08:25:18;;;;;;;;;;;14.80;99.90;;;;;;5083432;28;19919;-69
2023/05/11 08:27:44;;;;;;;;;;;14.90;99.90;;;;;;5083117;28;20341;-69
2023/05/11 08:30:10;;;;;;;;;;;14.90;99.90;;;;;;5067796;28;19961;-69
2023/05/11 08:32:36;;;;;;;;;;;15.00;99.90;;;;;;5085427;28;20101;-68
2023/05/11 08:35:03;;;;;;;;;;;15.00;99.90;;;;;;5082537;28;20011;-68
2023/05/11 08:37:29;;;;;;;;;;;15.00;99.90;;;;;;5086505;28;19941;-68
2023/05/11 08:39:54;;;;;;;;;;;15.00;99.90;;;;;;5084305;28;19957;-70
2023/05/11 08:42:22;;;;;;;;;;;15.00;99.90;;;;;;5060891;28;19912;-69
2023/05/11 08:44:48;;;;;;;;;;;15.10;99.90;;;;;;5047180;28;20318;-68
2023/05/11 08:47:14;;;;;;;;;;;15.10;99.90;;;;;;5080666;28;19912;-69
2023/05/11 08:49:40;;;;;;;;;;;15.20;99.90;;;;;;5050313;28;20571;-69
2023/05/11 08:52:05;;;;;;;;;;;15.30;99.90;;;;;;5085168;28;19952;-69
2023/05/11 08:54:31;;;;;;;;;;;15.30;99.90;;;;;;5087858;28;19995;-69
2023/05/11 08:56:57;;;;;;;;;;;15.20;99.90;;;;;;5079727;28;20337;-68
2023/05/11 08:59:27;;;;;;;;;;;15.20;99.90;;;;;;5066939;28;20390;-69
2023/05/11 09:01:54;;;;;;;;;;;15.10;99.90;;;;;;5079685;28;19916;-69
2023/05/11 09:04:21;;;;;;;;;;;15.00;99.90;;;;;;5082807;28;19927;-69
2023/05/11 09:06:47;;;;;;;;;;;15.00;99.90;;;;;;5064741;28;19924;-69
2023/05/11 09:09:13;;;;;;;;;;;15.00;99.90;;;;;;5067892;28;19908;-69
2023/05/11 09:11:39;;;;;;;;;;;14.90;99.90;;;;;;5066297;28;19912;-69
2023/05/11 09:14:05;;;;;;;;;;;14.80;99.90;;;;;;5081041;28;19923;-69
2023/05/11 09:16:30;;;;;;;;;;;14.70;99.90;;;;;;5081744;28;19919;-69
2023/05/11 09:18:58;;;;;;;;;;;14.60;99.90;;;;;;5082659;28;19920;-69
2023/05/11 09:21:24;;;;;;;;;;;14.70;99.90;;;;;;5081943;28;19924;-68
2023/05/11 09:23:50;;;;;;;;;;;14.70;99.90;;;;;;5084467;28;20279;-68
2023/05/11 09:26:19;;;;;;;;;;;14.70;99.90;;;;;;5063001;28;19912;-67
2023/05/11 09:29:05;;;;;;;;;;;14.80;99.90;;;;;;5066743;28;19921;-67
2023/05/11 09:31:38;;;;;;;;;;;14.80;99.90;;;;;;5062320;28;19966;-68
2023/05/11 09:34:14;;;;;;;;;;;14.70;99.90;;;;;;5080510;28;19918;-68
2023/05/11 09:36:42;;;;;;;;;;;14.70;99.90;;;;;;5066433;28;20014;-69
2023/05/11 09:39:08;;;;;;;;;;;14.70;99.90;;;;;;5084836;28;19926;-69
2023/05/11 09:41:34;;;;;;;;;;;14.70;99.90;;;;;;5063290;28;19920;-68
2023/05/11 09:44:04;;;;;;;;;;;14.70;99.90;;;;;;5063843;28;19917;-68
2023/05/11 09:46:29;;;;;;;;;;;14.70;99.90;;;;;;5065110;28;19967;-71
2023/05/11 09:49:01;;;;;;;;;;;14.70;99.90;;;;;;5084265;28;19959;-69
2023/05/11 09:51:28;;;;;;;;;;;14.60;99.90;;;;;;5063903;28;20068;-69
2023/05/11 09:53:54;;;;;;;;;;;14.70;99.90;;;;;;5084259;28;19962;-69
2023/05/11 09:56:20;;;;;;;;;;;14.60;99.90;;;;;;5082763;28;20479;-69
2023/05/11 09:58:47;;;;;;;;;;;14.50;99.90;;;;;;5084821;28;19916;-69
2023/05/11 10:01:14;;;;;;;;;;;14.60;99.90;;;;;;5084587;28;19958;-70
2023/05/11 10:03:46;;;;;;;;;;;14.50;99.90;;;;;;5078691;28;19920;-69
2023/05/11 10:06:12;;;;;;;;;;;14.50;99.90;;;;;;5063195;28;20295;-69
2023/05/11 10:08:38;;;;;;;;;;;14.40;99.90;;;;;;5079290;28;19916;-69
2023/05/11 10:11:05;;;;;;;;;;;14.30;99.90;;;;;;5086748;28;19923;-70
2023/05/11 10:13:32;;;;;;;;;;;14.30;99.90;;;;;;5085573;28;19915;-69
2023/05/11 10:16:00;;;;;;;;;;;14.30;99.90;;;;;;5064228;28;19920;-69
2023/05/11 10:18:26;;;;;;;;;;;14.40;99.90;;;;;;5087289;28;19928;-72
2023/05/11 10:20:52;;;;;;;;;;;14.50;99.90;;;;;;5085724;28;19916;-69
2023/05/11 10:23:18;;;;;;;;;;;14.50;99.90;;;;;;5067069;28;19912;-69
2023/05/11 10:25:44;;;;;;;;;;;14.70;99.90;;;;;;5080059;28;19912;-70
2023/05/11 10:28:10;;;;;;;;;;;14.80;99.90;;;;;;5063085;28;19912;-70
2023/05/11 10:30:36;;;;;;;;;;;15.00;99.90;;;;;;5068383;28;19919;-69
2023/05/11 10:33:01;;;;;;;;;;;15.10;99.90;;;;;;5085534;28;19916;-69
2023/05/11 10:35:27;;;;;;;;;;;15.30;99.90;;;;;;5090715;28;19927;-70
2023/05/11 10:37:53;;;;;;;;;;;15.40;99.90;;;;;;5073074;28;19920;-71
2023/05/11 10:40:19;;;;;;;;;;;15.50;99.90;;;;;;5084155;28;19921;-75
2023/05/11 10:42:44;;;;;;;;;;;15.50;99.90;;;;;;5050704;28;20015;-75
2023/05/11 10:45:14;;;;;;;;;;;15.50;99.90;;;;;;5068830;28;19945;-77
2023/05/11 10:47:39;;;;;;;;;;;15.40;99.90;;;;;;5083868;28;20285;-73
2023/05/11 10:50:19;;;;;;;;;;;15.30;99.90;;;;;;5069484;28;19912;-77
2023/05/11 10:52:57;;;;;;;;;;;15.20;99.90;;;;;;5068505;28;20333;-76
2023/05/11 10:55:26;;;;;;;;;;;15.20;99.90;;;;;;5067747;28;19920;-74
2023/05/11 10:58:02;;;;;;;;;;;15.40;99.90;;;;;;5081026;28;19919;-74
2023/05/11 11:00:46;;;;;;;;;;;15.50;99.90;;;;;;5063966;28;19916;-76
2023/05/11 11:03:13;;;;;;;;;;;15.50;99.90;;;;;;5077284;28;19959;-82
2023/05/11 11:05:39;;;;;;;;;;;15.50;99.90;;;;;;5063701;28;19920;-75
2023/05/11 11:08:07;;;;;;;;;;;15.50;99.90;;;;;;5088125;28;19993;-75
2023/05/11 11:10:37;;;;;;;;;;;15.50;99.90;;;;;;5071592;28;19919;-74
2023/05/11 11:13:07;;;;;;;;;;;15.40;99.90;;;;;;5065746;28;19912;-73
2023/05/11 11:15:52;;;;;;;;;;;15.40;99.90;;;;;;5067300;28;19999;-70
2023/05/11 11:18:25;;;;;;;;;;;15.40;99.90;;;;;;5064582;28;20353;-70
2023/05/11 11:20:55;;;;;;;;;;;15.50;99.90;;;;;;5081016;28;19916;-70
2023/05/11 11:23:39;;;;;;;;;;;15.50;99.90;;;;;;5069400;28;20354;-70
2023/05/11 11:26:05;;;;;;;;;;;15.60;99.90;;;;;;5080368;28;19916;-71
2023/05/11 11:28:51;;;;;;;;;;;15.70;99.90;;;;;;5075882;28;19946;-70
2023/05/11 11:31:26;;;;;;;;;;;15.80;99.90;;;;;;5059095;28;19985;-70
2023/05/11 11:33:52;;;;;;;;;;;15.80;99.90;;;;;;5087921;28;19969;-70
2023/05/11 11:36:17;;;;;;;;;;;15.90;99.90;;;;;;5085956;28;19920;-70
2023/05/11 11:38:56;;;;;;;;;;;15.90;99.90;;;;;;5080745;28;19924;-70
2023/05/11 11:41:31;;;;;;;;;;;16.00;99.90;;;;;;5082918;28;19955;-71
2023/05/11 11:43:57;;;;;;;;;;;16.00;99.90;;;;;;5042822;28;19916;-71
2023/05/11 11:46:27;;;;;;;;;;;15.90;99.90;;;;;;5087550;28;19966;-69
2023/05/11 11:49:06;;;;;;;;;;;15.80;99.90;;;;;;5048697;28;19923;-69
2023/05/11 11:51:32;;;;;;;;;;;15.80;99.90;;;;;;5066899;28;19913;-70
2023/05/11 11:53:58;;;;;;;;;;;15.80;99.90;;;;;;5083634;28;20042;-71
2023/05/11 11:56:23;;;;;;;;;;;15.90;99.90;;;;;;5048877;28;20301;-69
2023/05/11 11:58:49;;;;;;;;;;;16.00;99.90;;;;;;5068107;28;19924;-70
2023/05/11 12:01:17;;;;;;;;;;;16.10;99.90;;;;;;5081279;28;20342;-70
2023/05/11 12:03:44;;;;;;;;;;;16.20;99.90;;;;;;5065515;28;19912;-70
2023/05/11 12:06:10;;;;;;;;;;;16.30;99.90;;;;;;5083523;28;19916;-69
2023/05/11 12:08:37;;;;;;;;;;;16.30;99.90;;;;;;5081597;28;19908;-69
2023/05/11 12:11:03;;;;;;;;;;;16.30;99.90;;;;;;5083832;28;19912;-69
2023/05/11 12:13:29;;;;;;;;;;;16.20;99.90;;;;;;5065674;28;19955;-70
2023/05/11 12:16:08;;;;;;;;;;;16.20;99.90;;;;;;5086364;28;20009;-69
2023/05/11 12:18:34;;;;;;;;;;;16.20;99.90;;;;;;5084191;28;20364;-69
2023/05/11 12:20:59;;;;;;;;;;;16.30;99.90;;;;;;5068278;28;19998;-70
2023/05/11 12:23:26;;;;;;;;;;;16.40;99.90;;;;;;5083195;28;19999;-69
2023/05/11 12:26:04;;;;;;;;;;;16.60;99.90;;;;;;5080012;28;20417;-69
2023/05/11 12:28:31;;;;;;;;;;;16.80;99.90;;;;;;5087856;28;19919;-69
2023/05/11 12:30:56;;;;;;;;;;;16.70;99.90;;;;;;5085464;28;20448;-69
2023/05/11 12:33:22;;;;;;;;;;;16.80;99.90;;;;;;5082276;28;19912;-69
2023/05/11 12:35:55;;;;;;;;;;;16.70;99.90;;;;;;5062614;28;20298;-69
2023/05/11 12:38:20;;;;;;;;;;;16.70;99.90;;;;;;5086933;28;19962;-69
2023/05/11 12:40:50;;;;;;;;;;;16.70;99.90;;;;;;5063801;28;20107;-69
2023/05/11 12:43:17;;;;;;;;;;;16.80;99.90;;;;;;5087441;28;19965;-69
2023/05/11 12:45:42;;;;;;;;;;;17.00;99.90;;;;;;5062973;28;20045;-70
2023/05/11 12:48:09;;;;;;;;;;;17.20;99.90;;;;;;5064633;28;20384;-70
2023/05/11 12:50:39;;;;;;;;;;;17.30;99.90;;;;;;5080973;28;20399;-71
2023/05/11 12:53:15;;;;;;;;;;;17.40;99.90;;;;;;5068540;28;19961;-70
2023/05/11 12:55:41;;;;;;;;;;;17.40;99.90;;;;;;5076215;28;19923;-70
2023/05/11 12:58:11;;;;;;;;;;;17.50;99.90;;;;;;5065107;28;20372;-69
2023/05/11 13:00:48;;;;;;;;;;;17.40;99.90;;;;;;5083076;28;19919;-70
2023/05/11 13:03:19;;;;;;;;;;;17.20;99.90;;;;;;5083137;28;20287;-70
2023/05/11 13:05:45;;;;;;;;;;;17.20;99.90;;;;;;5081812;28;19916;-70
2023/05/11 13:08:13;;;;;;;;;;;17.10;99.90;;;;;;5063634;28;19912;-70
2023/05/11 13:10:38;;;;;;;;;;;17.10;99.90;;;;;;5074554;28;20002;-70
2023/05/11 13:13:04;;;;;;;;;;;17.30;99.90;;;;;;5063758;28;20002;-70
2023/05/11 13:15:30;;;;;;;;;;;17.50;99.90;;;;;;5071842;28;19912;-69
2023/05/11 13:17:57;;;;;;;;;;;18.00;99.90;;;;;;5071152;28;20390;-70
2023/05/11 13:20:26;;;;;;;;;;;18.40;99.90;;;;;;5083541;28;19912;-70
2023/05/11 13:23:03;;;;;;;;;;;18.60;99.90;;;;;;5087608;28;19916;-70
2023/05/11 13:25:29;;;;;;;;;;;18.60;99.90;;;;;;5065838;28;19908;-72
2023/05/11 13:27:55;;;;;;;;;;;18.70;99.90;;;;;;5069755;28;20367;-69
2023/05/11 13:30:20;;;;;;;;;;;18.60;99.90;;;;;;5049662;28;19916;-70
2023/05/11 13:32:46;;;;;;;;;;;18.40;99.90;;;;;;5087529;28;20577;-70
2023/05/11 13:35:12;;;;;;;;;;;18.70;99.90;;;;;;5069498;28;20427;-69
2023/05/11 13:37:37;;;;;;;;;;;18.90;99.90;;;;;;5086024;28;19969;-70
2023/05/11 13:40:03;;;;;;;;;;;18.90;99.90;;;;;;5067364;28;19967;-70
2023/05/11 13:42:29;;;;;;;;;;;18.60;99.90;;;;;;5065384;28;19916;-73
2023/05/11 13:44:55;;;;;;;;;;;18.70;99.90;;;;;;5082725;28;19969;-70
2023/05/11 13:47:21;;;;;;;;;;;19.30;99.90;;;;;;5086193;28;19912;-70
2023/05/11 13:49:46;;;;;;;;;;;20.10;99.90;;;;;;5087257;28;20384;-71
2023/05/11 13:52:12;;;;;;;;;;;20.70;99.90;;;;;;5085991;28;20135;-70
2023/05/11 13:54:37;;;;;;;;;;;21.50;99.90;;;;;;5087830;28;20018;-71
2023/05/11 13:57:03;;;;;;;;;;;22.10;99.90;;;;;;5051681;28;20371;-70
2023/05/11 13:59:29;;;;;;;;;;;22.80;99.90;;;;;;5085180;28;19990;-71
2023/05/11 14:01:55;;;;;;;;;;;22.30;99.90;;;;;;5050052;28;20387;-72
2023/05/11 14:04:20;;;;;;;;;;;22.20;99.90;;;;;;5086853;28;19970;-71
2023/05/11 14:06:46;;;;;;;;;;;21.80;99.90;;;;;;5086182;28;19923;-72
2023/05/11 14:09:11;;;;;;;;;;;21.40;99.90;;;;;;5088661;28;19920;-71
2023/05/11 14:11:37;;;;;;;;;;;21.00;99.90;;;;;;5077231;28;19923;-70
2023/05/11 14:14:03;;;;;;;;;;;20.50;99.90;;;;;;5083510;28;20347;-70